createdAt,value
2023-04-28T00:00:30.367Z,64.81
2023-04-28T00:03:04.504Z,64.50
2023-04-28T00:05:34.264Z,64.89
2023-04-28T00:08:03.750Z,64.45
2023-04-28T00:10:34.302Z,64.48
2023-04-28T00:13:03.935Z,65.24
2023-04-28T00:15:33.548Z,65.39
2023-04-28T00:18:05.625Z,65.21
2023-04-28T00:20:35.021Z,64.94
2023-04-28T00:23:04.381Z,65.01
2023-04-28T00:25:33.886Z,65.10
2023-04-28T00:28:03.238Z,64.75
2023-04-28T00:30:33.261Z,64.67
2023-04-28T00:33:05.225Z,64.43
2023-04-28T00:35:34.751Z,64.75
2023-04-28T00:38:04.079Z,64.69
2023-04-28T00:40:36.973Z,64.37
2023-04-28T00:43:07.161Z,64.26
2023-04-28T00:45:36.862Z,64.15
2023-04-28T00:48:08.983Z,64.54
2023-04-28T00:50:39.333Z,64.23
2023-04-28T00:53:09.045Z,64.08
2023-04-28T00:55:38.548Z,64.46
2023-04-28T00:58:08.037Z,64.36
2023-04-28T01:00:37.875Z,64.03
2023-04-28T01:03:10.082Z,63.89
2023-04-28T01:05:39.952Z,64.18
2023-04-28T01:08:09.310Z,64.01
2023-04-28T01:10:38.720Z,65.18
2023-04-28T01:13:08.036Z,64.50
2023-04-28T01:15:37.623Z,64.38
2023-04-28T01:18:07.642Z,65.42
2023-04-28T01:20:39.723Z,65.50
2023-04-28T01:23:14.054Z,65.73
2023-04-28T01:25:46.828Z,65.38
2023-04-28T01:28:16.268Z,65.01
2023-04-28T01:30:45.607Z,64.84
2023-04-28T01:33:14.972Z,64.85
2023-04-28T01:35:44.543Z,64.71
2023-04-28T01:38:14.249Z,64.42
2023-04-28T01:40:46.519Z,65.10
2023-04-28T01:43:15.951Z,64.70
2023-04-28T01:45:45.563Z,64.51
2023-04-28T01:48:15.077Z,64.56
2023-04-28T01:50:44.687Z,64.38
2023-04-28T01:53:23.386Z,64.27
2023-04-28T01:55:56.645Z,64.57
2023-04-28T01:58:26.195Z,65.08
2023-04-28T02:00:55.893Z,65.05
2023-04-28T02:03:25.956Z,65.08
2023-04-28T02:05:55.579Z,65.43
2023-04-28T02:08:25.219Z,65.73
2023-04-28T02:10:57.476Z,65.46
2023-04-28T02:13:27.161Z,65.73
2023-04-28T02:15:56.908Z,65.71
2023-04-28T02:18:26.408Z,65.70
2023-04-28T02:20:55.943Z,65.86
2023-04-28T02:23:25.599Z,65.73
2023-04-28T02:26:06.434Z,65.90
2023-04-28T02:28:35.960Z,65.52
2023-04-28T02:31:09.832Z,65.41
2023-04-28T02:33:39.950Z,65.49
2023-04-28T02:36:11.657Z,66.15
2023-04-28T02:38:41.705Z,66.33
2023-04-28T02:41:15.254Z,66.20
2023-04-28T02:43:44.909Z,66.56
2023-04-28T02:46:14.466Z,66.39
2023-04-28T02:48:44.077Z,66.26
2023-04-28T02:51:14.401Z,66.57
2023-04-28T02:53:44.088Z,66.64
2023-04-28T02:56:16.657Z,66.37
2023-04-28T02:58:46.566Z,65.72
2023-04-28T03:01:16.875Z,65.47
2023-04-28T03:03:46.475Z,65.82
2023-04-28T03:06:16.163Z,65.58
2023-04-28T03:08:45.618Z,65.20
2023-04-28T03:11:17.708Z,65.14
2023-04-28T03:13:47.175Z,65.68
2023-04-28T03:16:16.770Z,65.90
2023-04-28T03:18:46.400Z,66.28
2023-04-28T03:21:15.813Z,66.49
2023-04-28T03:23:45.396Z,66.41
2023-04-28T03:26:17.385Z,67.01
2023-04-28T03:28:46.975Z,67.64
2023-04-28T03:31:16.742Z,69.27
2023-04-28T03:33:47.341Z,67.64
2023-04-28T03:36:16.870Z,67.54
2023-04-28T03:38:46.767Z,68.57
2023-04-28T03:41:18.926Z,67.23
2023-04-28T03:43:48.498Z,67.46
2023-04-28T03:46:17.956Z,67.31
2023-04-28T03:48:47.598Z,67.33
2023-04-28T03:51:17.022Z,67.63
2023-04-28T03:53:46.667Z,67.91
2023-04-28T03:56:18.878Z,67.66
2023-04-28T03:58:48.625Z,68.01
2023-04-28T04:01:20.289Z,67.97
2023-04-28T04:03:50.147Z,67.59
2023-04-28T04:06:20.185Z,67.57
2023-04-28T04:08:49.780Z,67.82
2023-04-28T04:11:21.883Z,67.86
2023-04-28T04:13:51.424Z,67.71
2023-04-28T04:16:22.081Z,67.59
2023-04-28T04:18:51.675Z,68.30
2023-04-28T04:21:21.219Z,68.72
2023-04-28T04:23:50.672Z,68.84
2023-04-28T04:26:22.706Z,68.57
2023-04-28T04:28:52.153Z,68.19
2023-04-28T04:31:22.930Z,67.97
2023-04-28T04:33:52.472Z,68.27
2023-04-28T04:36:21.908Z,67.42
2023-04-28T04:38:53.261Z,68.73
2023-04-28T04:41:26.529Z,68.83
2023-04-28T04:43:55.920Z,68.69
2023-04-28T04:46:25.804Z,68.54
2023-04-28T04:48:55.149Z,68.32
2023-04-28T04:51:24.628Z,69.63
2023-04-28T04:53:53.937Z,69.94
2023-04-28T04:56:27.807Z,70.16
2023-04-28T04:58:57.578Z,70.11
2023-04-28T05:01:27.042Z,69.45
2023-04-28T05:03:57.037Z,69.29
2023-04-28T05:06:26.777Z,69.17
2023-04-28T05:08:56.736Z,70.75
2023-04-28T05:11:28.897Z,71.01
2023-04-28T05:13:58.403Z,71.07
2023-04-28T05:16:28.237Z,71.37
2023-04-28T05:18:59.679Z,72.50
2023-04-28T05:21:35.274Z,72.51
2023-04-28T05:24:07.768Z,73.61
2023-04-28T05:27:33.460Z,73.75
2023-04-28T05:30:05.896Z,73.42
2023-04-28T05:32:36.802Z,73.74
2023-04-28T05:35:06.523Z,74.22
2023-04-28T05:37:38.284Z,73.15
2023-04-28T05:40:09.338Z,73.67
2023-04-28T05:42:38.757Z,74.32
2023-04-28T05:45:12.863Z,74.25
2023-04-28T05:47:42.293Z,72.87
2023-04-28T05:50:12.870Z,73.13
2023-04-28T05:52:42.307Z,72.83
2023-04-28T05:55:12.815Z,72.14
2023-04-28T05:57:52.461Z,73.36
2023-04-28T06:00:26.010Z,72.31
2023-04-28T06:02:55.453Z,72.28
2023-04-28T06:05:25.946Z,72.31
2023-04-28T06:07:56.285Z,71.89
2023-04-28T06:10:26.156Z,71.60
2023-04-28T06:12:55.534Z,71.13
2023-04-28T06:15:27.704Z,71.91
2023-04-28T06:17:57.137Z,71.83
2023-04-28T06:20:26.575Z,71.18
2023-04-28T06:22:55.930Z,71.41
2023-04-28T06:25:25.308Z,71.46
2023-04-28T06:27:54.657Z,71.39
2023-04-28T06:30:28.112Z,71.06
2023-04-28T06:33:00.170Z,71.03
2023-04-28T06:35:29.685Z,70.58
2023-04-28T06:37:59.024Z,70.60
2023-04-28T06:40:28.330Z,72.00
2023-04-28T06:42:57.872Z,71.23
2023-04-28T06:45:29.824Z,70.96
2023-04-28T06:47:59.283Z,70.63
2023-04-28T06:50:28.699Z,70.45
2023-04-28T06:52:58.878Z,70.45
2023-04-28T06:55:29.609Z,69.48
2023-04-28T06:57:58.986Z,68.08
2023-04-28T07:00:30.936Z,69.67
2023-04-28T07:03:00.537Z,68.16
2023-04-28T07:05:30.388Z,68.86
2023-04-28T07:07:59.738Z,69.25
2023-04-28T07:10:29.081Z,67.51
2023-04-28T07:12:59.270Z,69.10
2023-04-28T07:15:31.748Z,67.24
2023-04-28T07:18:01.414Z,66.27
2023-04-28T07:20:30.794Z,66.68
2023-04-28T07:23:00.189Z,67.76
2023-04-28T07:25:29.625Z,66.77
2023-04-28T07:27:59.030Z,66.36
2023-04-28T07:30:31.065Z,65.55
2023-04-28T07:33:00.647Z,64.85
2023-04-28T07:35:30.390Z,63.80
2023-04-28T07:38:00.417Z,64.12
2023-04-28T07:40:29.835Z,64.51
2023-04-28T07:42:59.215Z,64.56
2023-04-28T07:45:31.352Z,64.13
2023-04-28T07:48:01.380Z,63.01
2023-04-28T07:50:30.793Z,63.34
2023-04-28T07:53:00.947Z,63.73
2023-04-28T07:55:30.298Z,64.02
2023-04-28T07:57:59.674Z,63.62
2023-04-28T08:00:31.754Z,64.14
2023-04-28T08:03:01.270Z,64.84
2023-04-28T08:05:30.765Z,64.25
2023-04-28T08:08:00.319Z,64.91
2023-04-28T08:10:29.868Z,62.94
2023-04-28T08:12:59.284Z,63.19
2023-04-28T08:15:31.294Z,63.69
2023-04-28T08:18:00.701Z,62.89
2023-04-28T08:20:30.385Z,61.83
2023-04-28T08:22:59.755Z,61.74
2023-04-28T08:25:29.263Z,60.73
2023-04-28T08:27:59.681Z,61.26
2023-04-28T08:30:31.858Z,62.07
2023-04-28T08:33:01.241Z,62.23
2023-04-28T08:35:30.680Z,61.51
2023-04-28T08:38:00.140Z,63.03
2023-04-28T08:40:31.553Z,61.63
2023-04-28T08:43:00.911Z,60.70
2023-04-28T08:45:33.637Z,60.91
2023-04-28T08:48:06.447Z,61.30
2023-04-28T08:50:38.198Z,62.06
2023-04-28T08:53:07.846Z,62.95
2023-04-28T08:55:38.929Z,61.45
2023-04-28T08:58:08.885Z,61.11
2023-04-28T09:00:42.281Z,61.50
2023-04-28T09:03:16.653Z,61.44
2023-04-28T09:05:46.419Z,61.16
2023-04-28T09:08:16.140Z,60.88
2023-04-28T09:10:45.578Z,60.64
2023-04-28T09:13:27.932Z,61.18
2023-04-28T09:16:05.453Z,61.22
2023-04-28T09:18:35.417Z,60.96
2023-04-28T09:21:09.243Z,60.38
2023-04-28T09:23:51.040Z,60.79
2023-04-28T09:26:20.355Z,60.78
2023-04-28T09:28:49.774Z,61.82
2023-04-28T09:31:29.299Z,61.41
2023-04-28T09:34:02.726Z,61.92
2023-04-28T09:36:32.995Z,61.52
2023-04-28T09:39:03.438Z,60.49
2023-04-28T09:41:41.038Z,60.25
2023-04-28T09:44:19.481Z,60.52
2023-04-28T09:46:51.813Z,60.36
2023-04-28T09:49:21.191Z,61.07
2023-04-28T09:51:50.528Z,60.44
2023-04-28T09:54:21.236Z,61.21
2023-04-28T09:56:51.148Z,60.59
2023-04-28T09:59:21.679Z,60.68
2023-04-28T10:01:54.099Z,60.28
2023-04-28T10:04:25.351Z,60.24
2023-04-28T10:06:54.926Z,60.18
2023-04-28T10:09:26.870Z,59.80
2023-04-28T10:11:56.203Z,59.79
2023-04-28T10:14:27.069Z,60.22
2023-04-28T10:17:06.705Z,59.70
2023-04-28T10:19:37.534Z,60.15
2023-04-28T10:22:26.412Z,60.15
2023-04-28T10:25:15.688Z,59.91
2023-04-28T10:27:46.795Z,60.52
2023-04-28T10:33:29.073Z,60.75
2023-04-28T10:35:59.010Z,60.72
2023-04-28T10:38:28.356Z,60.04
2023-04-28T10:41:04.212Z,60.53
2023-04-28T10:43:39.519Z,60.17
2023-04-28T10:46:13.262Z,59.69
2023-04-28T10:49:12.162Z,60.35
2023-04-28T10:51:41.575Z,61.02
2023-04-28T10:54:21.411Z,59.95
2023-04-28T10:57:21.575Z,60.26
2023-04-28T10:59:54.388Z,59.90
2023-04-28T11:02:43.622Z,60.00
2023-04-28T11:05:21.948Z,60.65
2023-04-28T11:08:33.455Z,61.79
2023-04-28T11:11:18.488Z,61.81
2023-04-28T11:13:49.735Z,60.83
2023-04-28T11:16:21.210Z,61.03
2023-04-28T11:18:56.116Z,60.62
2023-04-28T11:21:29.506Z,60.37
2023-04-28T11:24:00.342Z,61.52
2023-04-28T11:26:32.267Z,60.10
2023-04-28T11:29:03.303Z,60.71
2023-04-28T11:31:32.669Z,60.81
2023-04-28T11:34:08.533Z,61.01
2023-04-28T11:36:41.717Z,60.38
2023-04-28T11:39:13.090Z,60.56
2023-04-28T11:41:44.267Z,60.94
2023-04-28T11:44:15.422Z,61.69
2023-04-28T11:46:51.103Z,62.13
2023-04-28T11:49:21.871Z,61.20
2023-04-28T11:51:54.974Z,60.78
2023-04-28T11:54:25.833Z,60.41
2023-04-28T11:56:57.650Z,59.52
2023-04-28T11:59:28.427Z,60.42
2023-04-28T12:01:59.885Z,60.04
2023-04-28T12:04:32.047Z,59.89
2023-04-28T12:07:06.529Z,60.22
2023-04-28T12:09:37.360Z,59.42
2023-04-28T12:12:08.323Z,59.28
2023-04-28T12:14:59.694Z,60.01
2023-04-28T12:17:30.443Z,59.93
2023-04-28T12:20:02.005Z,60.12
2023-04-28T12:22:34.214Z,59.23
2023-04-28T12:25:08.163Z,60.96
2023-04-28T12:27:39.312Z,59.82
2023-04-28T12:30:30.838Z,59.68
2023-04-28T12:33:00.479Z,58.66
2023-04-28T12:35:31.725Z,59.18
2023-04-28T12:38:04.232Z,59.03
2023-04-28T12:40:33.583Z,58.62
2023-04-28T12:43:02.915Z,59.71
2023-04-28T12:45:33.094Z,59.38
2023-04-28T12:48:02.482Z,58.69
2023-04-28T12:50:33.234Z,58.18
2023-04-28T12:53:05.187Z,59.50
2023-04-28T12:55:34.750Z,59.63
2023-04-28T12:58:04.084Z,59.51
2023-04-28T13:00:33.477Z,60.06
2023-04-28T13:03:03.566Z,59.74
2023-04-28T13:05:35.180Z,60.36
2023-04-28T13:08:07.936Z,59.55
2023-04-28T13:10:37.302Z,59.69
2023-04-28T13:13:06.766Z,60.57
2023-04-28T13:15:38.792Z,60.45
2023-04-28T13:18:08.408Z,60.87
2023-04-28T13:20:37.883Z,59.17
2023-04-28T13:23:09.782Z,60.03
2023-04-28T13:25:39.143Z,59.55
2023-04-28T13:28:08.606Z,60.51
2023-04-28T13:30:37.962Z,59.95
2023-04-28T13:33:07.583Z,60.40
2023-04-28T13:35:37.007Z,60.44
2023-04-28T13:38:09.584Z,61.40
2023-04-28T13:40:39.619Z,60.85
2023-04-28T13:43:08.996Z,60.92
2023-04-28T13:45:38.441Z,59.76
2023-04-28T13:48:08.622Z,59.25
2023-04-28T13:50:39.547Z,60.21
2023-04-28T13:53:12.058Z,59.97
2023-04-28T13:55:41.530Z,59.64
2023-04-28T13:58:10.971Z,60.29
2023-04-28T14:00:40.779Z,59.57
2023-04-28T14:03:11.684Z,60.32
2023-04-28T14:05:48.722Z,59.37
2023-04-28T14:08:22.110Z,60.00
2023-04-28T14:10:51.864Z,59.75
2023-04-28T14:13:21.668Z,60.26
2023-04-28T14:15:57.859Z,60.33
2023-04-28T14:18:28.390Z,60.24
2023-04-28T14:20:57.970Z,60.16
2023-04-28T14:23:29.992Z,60.60
2023-04-28T14:25:59.525Z,60.12
2023-04-28T14:28:28.998Z,59.81
2023-04-28T14:30:58.421Z,60.70
2023-04-28T14:33:27.818Z,60.46
2023-04-28T14:35:57.202Z,60.08
2023-04-28T14:38:26.681Z,60.75
2023-04-28T14:40:58.625Z,60.17
2023-04-28T14:43:28.243Z,59.79
2023-04-28T14:45:57.669Z,60.31
2023-04-28T14:48:27.303Z,60.49
2023-04-28T14:50:56.805Z,59.93
2023-04-28T14:53:26.212Z,59.87
2023-04-28T14:56:07.582Z,60.14
2023-04-28T14:58:46.947Z,59.33
2023-04-28T15:01:16.763Z,59.88
2023-04-28T15:03:46.319Z,60.58
2023-04-28T15:06:16.657Z,60.66
2023-04-28T15:08:46.037Z,60.87
2023-04-28T15:11:18.116Z,60.92
2023-04-28T15:13:47.514Z,60.95
2023-04-28T15:16:17.057Z,60.45
2023-04-28T15:18:46.970Z,60.44
2023-04-28T15:21:16.323Z,60.91
2023-04-28T15:23:45.780Z,60.93
2023-04-28T15:26:17.728Z,61.25
2023-04-28T15:28:47.032Z,61.09
2023-04-28T15:31:16.438Z,61.13
2023-04-28T15:33:45.823Z,61.52
2023-04-28T15:36:15.349Z,61.66
2023-04-28T15:38:45.512Z,61.75
2023-04-28T15:41:15.092Z,62.08
2023-04-28T15:43:47.585Z,62.28
2023-04-28T15:46:17.865Z,61.97
2023-04-28T15:48:47.333Z,62.77
2023-04-28T15:51:17.086Z,64.17
2023-04-28T15:53:46.468Z,64.93
2023-04-28T15:56:17.446Z,65.60
2023-04-28T15:58:50.946Z,66.01
2023-04-28T16:01:23.729Z,66.83
2023-04-28T16:03:53.274Z,67.09
2023-04-28T16:06:22.759Z,67.88
2023-04-28T16:08:52.126Z,67.97
2023-04-28T16:11:21.701Z,68.04
2023-04-28T16:13:53.758Z,68.12
2023-04-28T16:16:25.776Z,67.66
2023-04-28T16:18:55.971Z,67.79
2023-04-28T16:21:25.284Z,67.96
2023-04-28T16:23:55.089Z,67.04
2023-04-28T16:26:24.406Z,67.03
2023-04-28T16:28:56.402Z,67.36
2023-04-28T16:31:25.987Z,67.32
2023-04-28T16:33:55.363Z,67.34
2023-04-28T16:36:24.735Z,67.60
2023-04-28T16:38:54.073Z,66.74
2023-04-28T16:41:23.436Z,67.29
2023-04-28T16:43:52.876Z,67.10
2023-04-28T16:46:24.924Z,67.24
2023-04-28T16:48:54.332Z,67.43
2023-04-28T16:51:23.710Z,66.61
2023-04-28T16:53:53.115Z,67.75
2023-04-28T16:56:22.459Z,69.33
2023-04-28T16:58:51.929Z,70.70
2023-04-28T17:01:24.335Z,72.04
2023-04-28T17:03:54.020Z,72.37
2023-04-28T17:06:23.457Z,73.16
2023-04-28T17:08:52.858Z,72.51
2023-04-28T17:11:22.208Z,72.67
2023-04-28T17:13:51.566Z,73.55
2023-04-28T17:16:20.953Z,74.36
2023-04-28T17:18:53.046Z,74.25
2023-04-28T17:21:22.394Z,72.87
2023-04-28T17:23:51.749Z,73.58
2023-04-28T17:26:21.076Z,72.97
2023-04-28T17:28:50.697Z,73.87
2023-04-28T17:31:20.098Z,73.50
2023-04-28T17:33:49.513Z,73.42
2023-04-28T17:36:23.359Z,74.75
2023-04-28T17:38:53.306Z,74.28
2023-04-28T17:41:23.272Z,73.38
2023-04-28T17:43:53.646Z,73.53
2023-04-28T17:46:23.766Z,72.91
2023-04-28T17:48:53.185Z,72.85
2023-04-28T17:51:25.305Z,73.03
2023-04-28T17:53:56.841Z,73.28
2023-04-28T17:56:26.474Z,74.51
2023-04-28T17:58:56.287Z,77.97
2023-04-28T18:01:25.763Z,79.39
2023-04-28T18:03:55.910Z,79.99
2023-04-28T18:06:28.637Z,81.47
2023-04-28T18:08:57.951Z,84.17
2023-04-28T18:11:28.107Z,84.17
2023-04-28T18:13:58.824Z,86.67
2023-04-28T18:16:28.496Z,87.63
2023-04-28T18:18:58.340Z,87.93
2023-04-28T18:21:30.586Z,88.23
2023-04-28T18:23:59.922Z,88.71
2023-04-28T18:26:29.237Z,89.14
2023-04-28T18:28:58.588Z,88.90
2023-04-28T18:31:28.040Z,87.59
2023-04-28T18:33:57.366Z,86.28
2023-04-28T18:36:26.728Z,84.92
2023-04-28T18:38:59.245Z,84.23
2023-04-28T18:41:28.584Z,84.17
2023-04-28T18:43:58.556Z,85.92
2023-04-28T18:46:29.507Z,86.78
2023-04-28T18:48:59.235Z,87.64
2023-04-28T18:51:28.674Z,89.25
2023-04-28T18:54:00.611Z,90.12
2023-04-28T18:56:29.972Z,89.43
2023-04-28T18:58:59.308Z,90.78
2023-04-28T19:01:28.694Z,91.01
2023-04-28T19:03:58.594Z,92.00
2023-04-28T19:06:28.162Z,91.45
2023-04-28T19:09:00.426Z,91.42
2023-04-28T19:11:30.585Z,90.72
2023-04-28T19:14:00.517Z,92.15
2023-04-28T19:16:29.964Z,93.16
2023-04-28T19:18:59.337Z,92.34
2023-04-28T19:21:29.874Z,92.70
2023-04-28T19:24:03.057Z,89.78
2023-04-28T19:26:32.816Z,88.19
2023-04-28T19:29:02.257Z,88.22
2023-04-28T19:31:31.736Z,89.40
2023-04-28T19:34:01.124Z,87.78
2023-04-28T19:36:30.863Z,89.01
2023-04-28T19:39:03.789Z,87.54
2023-04-28T19:41:33.228Z,85.92
2023-04-28T19:44:03.378Z,86.65
2023-04-28T19:46:32.745Z,85.96
2023-04-28T19:49:02.176Z,84.52
2023-04-28T19:51:31.592Z,82.05
2023-04-28T19:54:03.591Z,84.67
2023-04-28T19:56:33.364Z,85.02
2023-04-28T19:59:03.218Z,83.54
2023-04-28T20:01:32.672Z,84.98
2023-04-28T20:04:02.176Z,84.68
2023-04-28T20:06:31.929Z,85.13
2023-04-28T20:09:05.689Z,84.40
2023-04-28T20:11:35.435Z,83.45
2023-04-28T20:14:04.752Z,85.91
2023-04-28T20:16:34.123Z,90.04
2023-04-28T20:19:03.444Z,93.72
2023-04-28T20:21:32.943Z,94.73
2023-04-28T20:24:05.304Z,96.79
2023-04-28T20:26:34.629Z,96.91
2023-04-28T20:29:03.965Z,96.58
2023-04-28T20:31:33.422Z,96.91
2023-04-28T20:34:03.177Z,97.52
2023-04-28T20:36:33.806Z,97.84
2023-04-28T20:39:11.585Z,98.78
2023-04-28T20:41:41.375Z,96.44
2023-04-28T20:44:11.991Z,94.03
2023-04-28T21:22:46.902Z,94.18
2023-04-28T21:39:03.616Z,100.00
2023-04-28T21:42:42.676Z,100.00
2023-04-28T21:52:17.284Z,100.00
2023-04-28T21:55:36.481Z,100.00
2023-04-28T21:58:06.695Z,100.00
2023-04-28T22:00:41.673Z,100.00
2023-04-28T22:03:11.287Z,100.00
2023-04-28T22:05:43.823Z,100.00
2023-04-28T22:08:13.966Z,100.00
2023-04-28T22:10:44.214Z,100.00
2023-04-28T22:13:14.465Z,100.00
2023-04-28T22:15:44.485Z,100.00
2023-04-28T22:18:15.013Z,100.00
2023-04-28T22:20:47.804Z,100.00
2023-04-28T22:23:17.354Z,100.00
2023-04-28T22:25:46.801Z,100.00
2023-04-28T22:28:16.656Z,100.00
2023-04-28T22:30:48.234Z,100.00
2023-04-28T22:33:17.825Z,100.00
2023-04-28T22:35:50.034Z,100.00
2023-04-28T22:38:19.660Z,100.00
2023-04-28T22:40:49.206Z,100.00
2023-04-28T22:43:18.804Z,100.00
2023-04-28T22:45:48.522Z,100.00
2023-04-28T22:48:18.116Z,100.00
2023-04-28T22:50:51.541Z,100.00
2023-04-28T22:53:21.693Z,100.00
2023-04-28T22:55:51.413Z,100.00
2023-04-28T22:58:20.887Z,100.00
2023-04-28T23:00:50.369Z,100.00
2023-04-28T23:03:21.571Z,100.00
2023-04-28T23:05:53.702Z,100.00
2023-04-28T23:08:23.186Z,100.00
2023-04-28T23:10:52.518Z,100.00
2023-04-28T23:13:21.855Z,100.00
2023-04-28T23:15:51.232Z,100.00
2023-04-28T23:18:20.919Z,100.00
2023-04-28T23:20:52.823Z,100.00
2023-04-28T23:23:22.225Z,100.00
2023-04-28T23:25:52.158Z,100.00
2023-04-28T23:28:21.828Z,100.00
2023-04-28T23:30:51.185Z,100.00
2023-04-28T23:33:20.601Z,100.00
2023-04-28T23:35:50.003Z,100.00
2023-04-28T23:38:21.929Z,100.00
2023-04-28T23:40:51.329Z,100.00
2023-04-28T23:43:20.907Z,100.00
2023-04-28T23:45:50.302Z,100.00
2023-04-28T23:48:19.664Z,100.00
2023-04-28T23:50:49.245Z,100.00
2023-04-28T23:53:18.567Z,100.00
2023-04-28T23:55:51.020Z,100.00
2023-04-28T23:58:20.586Z,100.00
